Payson, UT

2:52 PM MST on January 29, 2015 (GMT -0700)
MesoWest Spanish Fork UT US | Change Station
CLOSE
Current Station
Personal Weather Station
Location: Salem, UT
Elevation: 4721 ft
Nearby Weather Stations

Elev 4721 ft 40.07 °N, 111.63 °W | Updated 37 minutes ago

Partly Cloudy
Partly Cloudy
46 °F
Feels Like 46 °F
N
1
Wind Variable Wind from SW
Gusts 4.0 mph

Today
High -- | Low -- °F
--% Chance of Precip.
Yesterday
High -- | Low -- °F
Precip. -- in
7:38 AM 5:41 PM
Waxing Gibbous, 77% visible
Pressure 30.28 in
Visibility 7.0 miles
Clouds Few 7000 ft
Scattered Clouds 16000 ft
Windchill 46 °F
Dew Point 37 °F
Humidity 69%
Rainfall -999.00 in
Snow Depth Not available.
UV 3 out of 12
Pollen .10 out of 12
Air Quality Not available.
Flu Activity Not available.
METAR KPVU 292055Z VRB03KT 7SM BR FEW070 SCT160 05/01 A3028

More Conditions Fewer Conditions

Pressure 30.28 in
Visibility 7.0 miles
Clouds Few 7000 ft
Scattered Clouds 16000 ft
Windchill 46 °F
Dew Point 37 °F
Humidity 69%
Rainfall -999.00 in
Snow Depth Not available.
UV 3 out of 12
Pollen .10 out of 12
Air Quality Not available.
Flu Activity Not available.
METAR KPVU 292055Z VRB03KT 7SM BR FEW070 SCT160 05/01 A3028

More Conditions Fewer Conditions

10-Day Weather Forecast

Almanac

Astronomy

Jan. 29, 2015 Rise Set
Actual Time
Civil Twilight
Nautical Twilight
Astronomical Twilight
Moon
Length of Visible Light
Length of Day
Tomorrow will be .
, % of the Moon is Illuminated

Today's Extremes

State Highs State Lows

Community

WunderPhotos

Upload Photos

1,791,615 photos uploaded!

WunderBlogs® & News

Nearby

Air Quality

  Air Quality AQ Index Pollutant
Not available.

Snow Depth

Station Depth Elevation

Earthquake Activity

City Distance Mag. Time & Date
Minimum magnitude displayed is 2.5.

Coastal Water Temperatures

Place Temperature

Nearby Weather Stations